Time;durP1;ratioP1;P1;durP2;ratioP2;P2;SDS_P1;SDS_P2;PMS_P1;PMS_P2;Temp;Humidity;BMP_temperature;BMP_pressure;BME280_temperature;BME280_humidity;BME280_pressure;Samples;Min_cycle;Max_cycle;Signal;HPM_P1;HPM_P2
2023/04/10 00:00:20;;;;;;;5.75;4.47;;;;;;;15.37;41.58;93986.31;4965360;23;20026;-91
2023/04/10 00:02:46;;;;;;;5.75;4.25;;;;;;;15.39;41.83;93987.31;4985441;23;20058;-92
2023/04/10 00:05:12;;;;;;;6.93;4.70;;;;;;;15.35;41.64;93994.97;4990693;23;20046;-91
2023/04/10 00:07:37;;;;;;;6.65;4.88;;;;;;;15.36;41.50;93987.53;4991976;23;20053;-91
2023/04/10 00:10:04;;;;;;;6.30;4.93;;;;;;;15.39;41.63;93986.56;4951960;28;20454;-91
2023/04/10 00:12:32;;;;;;;6.43;4.68;;;;;;;15.36;41.56;93979.38;4967143;28;20039;-91
2023/04/10 00:15:00;;;;;;;6.03;4.90;;;;;;;15.35;41.61;93988.75;4963876;28;20058;-92
2023/04/10 00:17:25;;;;;;;6.65;5.47;;;;;;;15.35;41.85;93980.59;4952439;28;20042;-91
2023/04/10 00:19:51;;;;;;;6.97;5.07;;;;;;;15.35;41.64;93975.91;4913750;29;20040;-92
2023/04/10 00:22:17;;;;;;;6.50;4.75;;;;;;;15.33;41.70;93981.06;4909799;23;20518;-91
2023/04/10 00:24:45;;;;;;;5.82;4.70;;;;;;;15.38;41.70;93971.44;4950755;29;20043;-92
2023/04/10 00:27:10;;;;;;;6.43;4.50;;;;;;;15.44;41.89;93980.44;4947089;28;20153;-92
2023/04/10 00:29:35;;;;;;;6.50;5.05;;;;;;;15.44;41.34;93972.25;4933166;28;20043;-92
2023/04/10 00:32:01;;;;;;;5.55;4.43;;;;;;;15.35;41.61;93967.72;4935563;23;20043;-92
2023/04/10 00:34:27;;;;;;;8.38;5.05;;;;;;;15.33;41.40;93972.91;4968166;28;20074;-91
2023/04/10 00:36:53;;;;;;;6.10;4.47;;;;;;;15.37;41.54;93969.97;4951731;28;20042;-92
2023/04/10 00:39:20;;;;;;;5.85;4.45;;;;;;;15.33;41.73;93958.53;4983019;28;20046;-91
2023/04/10 00:41:46;;;;;;;6.13;4.50;;;;;;;15.33;41.78;93964.72;4985353;28;20027;-92
2023/04/10 00:44:13;;;;;;;6.65;5.22;;;;;;;15.36;41.82;93969.22;4984805;28;20042;-92
2023/04/10 00:46:39;;;;;;;6.43;4.80;;;;;;;15.37;41.62;93967.97;4996815;28;20097;-91
2023/04/10 00:49:08;;;;;;;6.10;4.72;;;;;;;15.35;41.59;93959.56;5002605;28;20046;-91
2023/04/10 00:51:35;;;;;;;6.10;4.82;;;;;;;15.29;41.72;93964.19;5001973;28;20043;-92
2023/04/10 00:54:01;;;;;;;5.80;4.80;;;;;;;15.35;41.75;93973.16;5001655;28;20392;-91
2023/04/10 00:56:27;;;;;;;5.68;4.45;;;;;;;15.35;41.98;93967.72;5015127;28;20042;-92
2023/04/10 00:59:01;;;;;;;6.80;4.78;;;;;;;15.44;41.61;93967.56;5001480;28;20043;-92
2023/04/10 01:01:27;;;;;;;5.53;4.18;;;;;;;15.38;42.16;93972.19;5018634;28;20102;-92
2023/04/10 01:03:52;;;;;;;5.68;4.50;;;;;;;15.42;41.49;93967.28;5022303;28;20050;-92
2023/04/10 01:06:44;;;;;;;5.97;4.47;;;;;;;15.39;41.71;93962.78;5003301;28;20045;-92
2023/04/10 01:09:12;;;;;;;;;;;;;;;15.39;41.56;93962.03;5011438;28;20044;-92
2023/04/10 01:11:53;;;;;;;6.82;4.70;;;;;;;15.40;41.66;93958.84;5012342;22;19981;-92
2023/04/10 01:14:35;;;;;;;6.47;5.03;;;;;;;15.33;41.61;93961.25;5007266;28;20061;-91
2023/04/10 01:17:12;;;;;;;6.18;4.53;;;;;;;15.31;41.72;93960.97;5013380;22;20068;-92
2023/04/10 01:19:59;;;;;;;8.48;5.00;;;;;;;15.33;41.61;93963.97;4966538;28;20043;-91
2023/04/10 01:22:49;;;;;;;6.30;4.65;;;;;;;15.36;42.06;93954.84;4988276;28;20043;-91
2023/04/10 01:25:27;;;;;;;6.75;4.85;;;;;;;15.30;41.85;93954.03;4972755;28;20019;-91
2023/04/10 01:28:18;;;;;;;6.00;4.65;;;;;;;15.35;41.96;93956.81;5040165;28;20479;-92
2023/04/10 01:30:46;;;;;;;5.75;4.20;;;;;;;15.35;41.63;93953.34;5027687;28;20034;-91
2023/04/10 01:33:12;;;;;;;6.22;4.75;;;;;;;15.29;41.53;93950.56;4993989;28;20129;-91
2023/04/10 01:35:39;;;;;;;6.65;4.78;;;;;;;15.24;41.69;93943.06;4969185;23;20062;-92
2023/04/10 01:38:05;;;;;;;6.15;4.70;;;;;;;15.35;41.89;93945.19;4966824;28;20062;-92
2023/04/10 01:40:32;;;;;;;5.95;4.32;;;;;;;15.38;41.33;93944.19;4953118;28;20035;-91
2023/04/10 01:42:58;;;;;;;6.35;4.82;;;;;;;15.31;41.70;93948.09;4951878;28;20055;-92
2023/04/10 01:48:09;;;;;;;6.35;4.63;;;;;;;15.32;41.60;93948.84;5014921;22;20112;-92
2023/04/10 01:50:35;;;;;;;6.10;4.80;;;;;;;15.33;41.53;93955.81;4993426;28;20042;-91
2023/04/10 01:53:02;;;;;;;5.35;4.45;;;;;;;15.32;41.78;93952.31;4975558;28;20046;-92
2023/04/10 01:55:28;;;;;;;6.50;4.63;;;;;;;15.33;41.64;93951.09;4991784;23;20059;-91
2023/04/10 01:57:53;;;;;;;6.05;4.57;;;;;;;15.35;41.91;93948.66;4985502;28;20030;-92
2023/04/10 02:00:20;;;;;;;5.90;4.57;;;;;;;15.34;41.70;93957.31;4955468;28;20031;-91
2023/04/10 02:02:45;;;;;;;5.65;4.63;;;;;;;15.35;41.73;93951.38;4976635;28;20037;-92
2023/04/10 02:05:13;;;;;;;5.53;4.70;;;;;;;15.34;41.79;93947.16;4958419;28;20035;-92
2023/04/10 02:07:56;;;;;;;5.35;4.60;;;;;;;15.32;41.84;93951.59;5008579;22;20039;-92
2023/04/10 02:10:53;;;;;;;6.55;4.50;;;;;;;15.38;41.82;93944.19;4998490;23;20046;-92
2023/04/10 02:13:20;;;;;;;7.93;5.38;;;;;;;15.36;41.96;93943.97;5003943;28;20057;-91
2023/04/10 02:15:46;;;;;;;6.60;4.88;;;;;;;15.35;41.77;93939.72;4973266;28;20065;-92
2023/04/10 02:18:16;;;;;;;5.47;4.28;;;;;;;15.41;41.86;93943.25;4989862;28;20121;-92
2023/04/10 02:20:41;;;;;;;6.57;4.68;;;;;;;15.32;41.72;93948.84;5038102;28;20045;-92
2023/04/10 02:23:06;;;;;;;6.40;4.82;;;;;;;15.32;41.67;93952.31;4972809;28;20034;-92
2023/04/10 02:25:33;;;;;;;6.82;4.95;;;;;;;15.30;41.85;93943.88;4989766;23;20073;-91
2023/04/10 02:28:06;;;;;;;5.30;3.95;;;;;;;15.34;41.89;93949.88;4984071;28;20046;-91
2023/04/10 02:30:32;;;;;;;6.32;4.78;;;;;;;15.32;41.65;93944.16;4953860;28;20101;-92
2023/04/10 02:32:58;;;;;;;5.75;4.90;;;;;;;15.32;41.74;93944.16;4969583;28;20031;-91
2023/04/10 02:35:24;;;;;;;7.13;5.00;;;;;;;15.34;41.59;93944.44;4953558;28;20039;-91
2023/04/10 02:37:50;;;;;;;6.03;4.57;;;;;;;15.31;41.25;93950.09;4965330;28;20067;-91
2023/04/10 02:40:15;;;;;;;6.35;4.78;;;;;;;15.32;41.67;93937.97;4965684;28;20536;-92
2023/04/10 02:42:41;;;;;;;6.60;4.35;;;;;;;15.37;41.82;93948.19;4965086;28;20043;-91
2023/04/10 02:45:13;;;;;;;6.47;4.90;;;;;;;15.34;41.76;93949.88;4965371;28;20150;-92
2023/04/10 02:47:38;;;;;;;6.82;4.70;;;;;;;15.32;41.91;93952.31;4986046;28;20031;-92
2023/04/10 02:50:06;;;;;;;6.53;4.70;;;;;;;15.27;41.73;93947.56;4953392;28;20050;-92
2023/04/10 02:52:31;;;;;;;5.75;4.43;;;;;;;15.29;41.54;93942.38;4983532;28;20085;-91
2023/04/10 02:54:58;;;;;;;6.68;4.20;;;;;;;15.28;42.02;93949.06;4993066;23;20103;-92
2023/04/10 02:57:25;;;;;;;5.57;4.43;;;;;;;15.35;41.97;93945.94;4987746;28;20046;-91
2023/04/10 02:59:54;;;;;;;6.00;4.60;;;;;;;15.28;41.35;93948.31;4994999;23;20341;-91
2023/04/10 03:02:20;;;;;;;6.05;4.45;;;;;;;15.27;41.91;93944.09;4970688;28;20031;-91
2023/04/10 03:04:47;;;;;;;6.03;4.50;;;;;;;15.26;41.92;93934.41;5007592;23;20042;-91
2023/04/10 03:07:12;;;;;;;5.93;4.20;;;;;;;15.29;41.65;93939.66;4988909;28;20140;-92
2023/04/10 03:09:38;;;;;;;6.45;4.55;;;;;;;15.37;41.74;93931.84;4968500;23;20049;-91
2023/04/10 03:12:03;;;;;;;6.32;4.82;;;;;;;15.35;41.68;93926.88;4980263;28;20331;-91
2023/04/10 03:14:28;;;;;;;5.65;4.40;;;;;;;15.33;41.64;93937.50;4978310;23;20035;-92
2023/04/10 03:16:54;;;;;;;6.03;4.40;;;;;;;15.34;41.53;93933.53;4968090;28;20038;-91
2023/04/10 03:19:21;;;;;;;5.55;4.60;;;;;;;15.36;41.55;93933.81;5002595;28;20042;-91
2023/04/10 03:21:49;;;;;;;5.72;4.45;;;;;;;15.31;41.58;93937.22;5025741;22;20045;-92
2023/04/10 03:24:15;;;;;;;6.85;5.13;;;;;;;15.31;41.77;93939.19;4967195;28;20031;-92
2023/04/10 03:26:41;;;;;;;6.47;4.50;;;;;;;15.28;41.79;93932.72;4963229;28;20410;-92
2023/04/10 03:29:07;;;;;;;6.25;4.50;;;;;;;15.25;41.90;93932.91;4973814;23;20450;-91
2023/04/10 03:31:32;;;;;;;5.93;4.47;;;;;;;15.24;42.10;93932.16;4953881;28;20038;-91
2023/04/10 03:33:57;;;;;;;5.82;4.82;;;;;;;15.26;41.68;93929.72;4950308;23;20055;-92
2023/04/10 03:36:23;;;;;;;6.25;4.75;;;;;;;15.29;41.88;93934.22;4965901;28;20039;-91
2023/04/10 03:38:51;;;;;;;6.15;4.72;;;;;;;15.33;42.08;93929.31;4955561;23;20054;-91
2023/04/10 03:41:21;;;;;;;5.90;4.47;;;;;;;15.32;41.92;93940.69;4928577;29;20212;-92
2023/04/10 03:43:48;;;;;;;8.27;5.13;;;;;;;15.29;41.52;93941.63;4914243;29;20109;-92
2023/04/10 03:46:15;;;;;;;6.38;5.07;;;;;;;15.26;41.54;93943.34;4913695;29;20047;-92
2023/04/10 03:48:40;;;;;;;6.72;5.07;;;;;;;15.35;42.00;93937.00;4891177;29;20076;-92
2023/04/10 03:51:06;;;;;;;8.27;5.43;;;;;;;15.38;42.03;93939.50;4894680;29;20040;-91
2023/04/10 03:53:35;;;;;;;7.10;4.82;;;;;;;15.31;41.81;93939.94;4976746;23;20051;-91
2023/04/10 03:56:02;;;;;;;6.55;4.88;;;;;;;15.34;41.86;93933.53;4985754;28;20101;-92
2023/04/10 03:58:28;;;;;;;7.30;5.10;;;;;;;15.33;41.42;93940.22;4968719;28;20042;-91
2023/04/10 04:00:54;;;;;;;7.82;5.28;;;;;;;15.33;41.83;93936.75;4969520;28;20081;-92
2023/04/10 04:03:19;;;;;;;9.02;6.72;;;;;;;15.38;41.96;93933.31;4969966;28;20057;-92
2023/04/10 04:05:46;;;;;;;6.63;4.95;;;;;;;15.31;41.94;93942.66;4954703;28;20042;-92
2023/04/10 04:08:14;;;;;;;8.07;5.40;;;;;;;15.32;41.85;93938.72;4957095;23;20510;-92
2023/04/10 04:13:05;;;;;;;6.95;4.93;;;;;;;15.29;41.85;93949.81;5009174;23;20054;-91
2023/04/10 04:15:32;;;;;;;10.18;7.28;;;;;;;15.32;42.31;93951.59;4970136;28;20061;-91
2023/04/10 04:17:59;;;;;;;5.85;4.60;;;;;;;15.28;41.92;93945.59;4970399;28;20046;-92
2023/04/10 04:20:27;;;;;;;8.00;5.75;;;;;;;15.28;42.06;93954.50;4986252;28;20018;-91
2023/04/10 04:23:02;;;;;;;7.13;5.38;;;;;;;15.30;41.87;93957.50;4987954;28;20038;-91
2023/04/10 04:25:28;;;;;;;7.07;4.82;;;;;;;15.27;41.95;93954.97;4986485;28;20089;-92
2023/04/10 04:27:53;;;;;;;18.33;9.40;;;;;;;15.41;42.01;93946.72;4971268;28;20039;-92
2023/04/10 04:30:19;;;;;;;7.07;4.95;;;;;;;15.32;41.70;93957.78;4984317;28;20045;-92
2023/04/10 04:32:45;;;;;;;12.00;7.85;;;;;;;15.44;42.47;93962.13;5007254;28;20030;-92
2023/04/10 04:35:10;;;;;;;12.77;7.28;;;;;;;15.43;42.00;93968.03;4989828;23;20049;-92
2023/04/10 04:37:37;;;;;;;11.88;7.72;;;;;;;15.45;41.92;93960.16;4966191;28;20031;-91
2023/04/10 04:40:14;;;;;;;9.57;6.78;;;;;;;15.43;41.88;93962.59;4951892;28;20078;-91
2023/04/10 04:42:40;;;;;;;7.82;5.30;;;;;;;15.35;41.83;93962.28;4990192;22;20042;-92
2023/04/10 04:45:09;;;;;;;11.45;8.60;;;;;;;15.43;42.25;93965.31;4968567;28;20569;-92
2023/04/10 04:47:35;;;;;;;15.05;9.00;;;;;;;15.43;42.45;93960.63;4986049;28;20046;-92
2023/04/10 04:50:02;;;;;;;18.27;11.13;;;;;;;15.42;41.94;93961.84;5045727;23;20039;-92
2023/04/10 04:52:28;;;;;;;10.30;6.82;;;;;;;15.45;42.15;93962.88;5034506;23;20046;-90
2023/04/10 04:54:54;;;;;;;14.40;8.93;;;;;;;15.48;42.27;93961.16;5038678;28;20048;-92
2023/04/10 04:57:20;;;;;;;14.57;8.60;;;;;;;15.50;42.51;93964.91;5005492;28;20447;-91
2023/04/10 04:59:45;;;;;;;7.15;5.63;;;;;;;15.36;42.10;93963.78;4980392;23;20110;-92
2023/04/10 05:02:11;;;;;;;7.40;4.90;;;;;;;15.32;42.00;93963.22;4999944;28;20045;-92
2023/04/10 05:04:39;;;;;;;11.50;6.28;;;;;;;15.37;42.05;93964.53;4978890;23;20283;-92
2023/04/10 05:07:05;;;;;;;11.23;6.60;;;;;;;15.49;42.09;93970.84;4987622;23;20057;-91
2023/04/10 05:09:35;;;;;;;7.25;4.93;;;;;;;15.47;41.85;93967.84;4983803;28;20031;-92
2023/04/10 05:12:01;;;;;;;11.68;7.25;;;;;;;15.44;41.79;93972.25;5003769;28;20464;-92
2023/04/10 05:14:26;;;;;;;7.05;4.95;;;;;;;15.42;41.66;93972.75;4968087;28;20038;-92
2023/04/10 05:16:52;;;;;;;13.77;6.30;;;;;;;15.51;41.71;93980.03;4977765;28;20046;-92
2023/04/10 05:19:17;;;;;;;16.95;6.30;;;;;;;15.50;42.15;93966.88;4974835;23;20047;-92
2023/04/10 05:21:44;;;;;;;12.13;8.23;;;;;;;15.58;42.16;93966.03;4972491;23;20583;-91
2023/04/10 05:24:10;;;;;;;8.63;5.78;;;;;;;15.48;41.69;93972.81;4952134;28;20123;-91
2023/04/10 05:26:41;;;;;;;9.48;5.32;;;;;;;15.53;42.10;93974.09;4949409;28;20043;-92
2023/04/10 05:29:06;;;;;;;10.70;7.28;;;;;;;15.54;42.09;93975.59;4982481;28;20043;-91
2023/04/10 05:31:32;;;;;;;13.40;6.47;;;;;;;15.47;42.01;93976.00;4950216;28;20039;-92
2023/04/10 05:33:57;;;;;;;10.43;6.18;;;;;;;15.52;41.80;93981.53;4965308;28;20039;-92
2023/04/10 05:36:23;;;;;;;8.13;6.00;;;;;;;15.52;42.07;93986.22;4929656;28;20051;-91
2023/04/10 05:38:49;;;;;;;6.45;4.68;;;;;;;15.42;41.68;93982.88;4931214;29;20097;-91
2023/04/10 05:41:15;;;;;;;9.00;6.47;;;;;;;15.57;41.97;93971.97;4914876;29;20064;-92
2023/04/10 05:43:40;;;;;;;6.88;5.05;;;;;;;15.56;41.81;93981.38;4893407;29;20040;-92
2023/04/10 05:46:06;;;;;;;9.02;6.25;;;;;;;15.57;41.70;93980.13;4890884;29;20040;-91
2023/04/10 05:48:32;;;;;;;6.30;4.28;;;;;;;15.51;41.43;93982.75;4892493;29;20044;-91
2023/04/10 05:51:00;;;;;;;8.05;4.97;;;;;;;15.50;41.51;93988.69;4894945;29;20040;-92
2023/04/10 05:53:31;;;;;;;7.80;5.38;;;;;;;15.59;42.03;93991.31;4879755;29;20036;-91
2023/04/10 05:55:58;;;;;;;7.45;4.68;;;;;;;15.62;41.89;93984.88;4881265;29;20571;-92
2023/04/10 05:58:25;;;;;;;7.72;5.47;;;;;;;15.68;41.91;93993.88;4865823;29;20037;-92
2023/04/10 06:00:51;;;;;;;9.05;6.15;;;;;;;15.70;41.75;93996.88;4899222;29;20067;-92
2023/04/10 06:03:18;;;;;;;8.57;5.60;;;;;;;15.69;41.64;93998.09;4898113;29;20043;-93
2023/04/10 06:05:51;;;;;;;7.75;5.25;;;;;;;15.72;41.78;93997.16;4917037;29;20043;-92
2023/04/10 06:08:18;;;;;;;9.57;4.90;;;;;;;15.72;41.46;93987.00;4927546;29;20047;-92
2023/04/10 06:10:45;;;;;;;8.98;4.82;;;;;;;15.69;41.67;93996.13;4874367;29;20056;-93
2023/04/10 06:13:11;;;;;;;7.65;5.22;;;;;;;15.71;41.82;93999.13;4854181;29;20045;-92
2023/04/10 06:15:39;;;;;;;5.07;3.80;;;;;;;15.56;41.45;94001.19;4872626;29;20045;-92
2023/04/10 06:18:05;;;;;;;8.15;5.45;;;;;;;15.65;41.99;93989.38;4868259;29;20054;-92
2023/04/10 06:20:30;;;;;;;7.57;4.60;;;;;;;15.68;42.04;94002.81;4895534;23;20492;-91
2023/04/10 06:22:59;;;;;;;6.32;4.32;;;;;;;15.64;41.64;94006.94;5001923;28;20057;-92
2023/04/10 06:25:25;;;;;;;6.95;4.60;;;;;;;15.65;41.95;94009.19;4986089;28;20023;-92
2023/04/10 06:27:50;;;;;;;5.32;4.55;;;;;;;15.69;41.68;94003.56;4967867;28;20070;-91
2023/04/10 06:30:16;;;;;;;5.32;3.97;;;;;;;15.71;41.87;94009.28;4969350;28;20043;-92
2023/04/10 06:32:41;;;;;;;6.95;4.82;;;;;;;15.74;41.75;94008.31;4968449;28;20031;-93
2023/04/10 06:35:08;;;;;;;7.22;4.88;;;;;;;15.75;41.68;94002.41;4973005;28;20035;-92
2023/04/10 06:37:33;;;;;;;7.68;5.40;;;;;;;15.77;41.73;94007.38;4998747;28;20035;-93
2023/04/10 06:40:06;;;;;;;8.02;5.32;;;;;;;15.77;41.72;93991.75;4985675;28;20066;-92
2023/04/10 06:42:32;;;;;;;10.55;6.07;;;;;;;15.83;41.97;94012.84;4986445;28;20050;-92
2023/04/10 06:44:57;;;;;;;9.60;6.20;;;;;;;15.81;41.77;93999.72;5002160;28;20034;-91
2023/04/10 06:47:23;;;;;;;10.52;7.15;;;;;;;15.80;41.91;94000.22;4986227;28;20486;-93
2023/04/10 06:49:48;;;;;;;9.90;6.50;;;;;;;15.77;42.03;94007.38;4982276;28;20037;-93
2023/04/10 06:52:14;;;;;;;12.07;6.45;;;;;;;15.83;42.01;94010.13;4977853;28;20061;-93
2023/04/10 06:54:41;;;;;;;14.10;9.13;;;;;;;15.88;42.13;94009.44;4981887;28;20054;-92
2023/04/10 06:57:07;;;;;;;12.18;7.40;;;;;;;15.85;41.91;94008.44;4972416;28;20416;-91
2023/04/10 06:59:34;;;;;;;15.82;8.73;;;;;;;15.87;42.23;94003.25;4955838;28;20513;-95
2023/04/10 07:02:03;;;;;;;11.25;7.10;;;;;;;15.85;41.77;94004.94;4982128;28;20122;-92
2023/04/10 07:04:30;;;;;;;10.82;6.97;;;;;;;15.86;41.94;94015.38;4987694;28;20058;-92
2023/04/10 07:06:55;;;;;;;10.27;7.05;;;;;;;15.86;41.63;94007.19;5001043;28;20038;-91
2023/04/10 07:09:28;;;;;;;10.38;7.10;;;;;;;15.86;41.82;94014.63;4960737;28;22230;-93
2023/04/10 07:11:53;;;;;;;8.38;6.05;;;;;;;15.85;41.82;94018.59;4985478;28;20064;-92
2023/04/10 07:14:19;;;;;;;13.82;8.32;;;;;;;15.86;41.77;94009.19;5000343;28;20038;-93
2023/04/10 07:16:44;;;;;;;12.02;7.82;;;;;;;15.88;42.09;94017.63;4984036;28;20042;-92
2023/04/10 07:19:10;;;;;;;9.32;5.97;;;;;;;15.93;41.90;94019.69;4950341;28;20053;-91
2023/04/10 07:21:35;;;;;;;10.45;6.88;;;;;;;15.90;41.82;94013.19;4964370;28;20042;-91
2023/04/10 07:24:01;;;;;;;10.15;7.72;;;;;;;15.95;42.11;94015.25;4995294;28;20161;-93
2023/04/10 07:26:26;;;;;;;11.25;6.65;;;;;;;15.91;41.72;94011.97;4971353;28;20042;-92
2023/04/10 07:28:52;;;;;;;12.10;7.32;;;;;;;15.91;41.86;94014.69;4988987;28;20034;-92
2023/04/10 07:31:17;;;;;;;9.65;6.72;;;;;;;15.91;42.17;94016.69;5003217;28;20551;-93
2023/04/10 07:33:44;;;;;;;13.45;7.03;;;;;;;15.98;41.99;94008.84;4972783;28;20556;-93
2023/04/10 07:36:10;;;;;;;11.27;6.97;;;;;;;15.94;41.79;94004.81;4986924;28;20042;-91
2023/04/10 07:38:44;;;;;;;11.02;6.15;;;;;;;15.95;41.97;94001.63;4988080;28;20061;-92
2023/04/10 07:41:11;;;;;;;11.20;6.68;;;;;;;15.98;42.32;94000.66;4985790;28;20034;-93
2023/04/10 07:43:36;;;;;;;8.35;5.68;;;;;;;15.96;41.96;94002.38;4976371;28;20038;-91
2023/04/10 07:46:05;;;;;;;9.68;6.47;;;;;;;15.98;42.01;94006.09;4980521;28;20050;-91
2023/04/10 07:48:30;;;;;;;10.52;6.03;;;;;;;15.95;41.96;94007.06;4999174;28;20508;-92
2023/04/10 07:50:57;;;;;;;11.07;6.57;;;;;;;15.96;42.09;94003.09;4987504;28;20034;-92
2023/04/10 07:53:23;;;;;;;9.85;4.82;;;;;;;15.96;42.11;94013.25;4997422;23;20046;-92
2023/04/10 07:55:48;;;;;;;8.18;5.43;;;;;;;15.99;41.61;94002.16;4986201;28;20046;-92
2023/04/10 07:58:15;;;;;;;9.65;6.30;;;;;;;16.01;42.00;94002.44;4983990;28;20035;-92
2023/04/10 08:00:41;;;;;;;7.32;5.47;;;;;;;16.02;42.10;93997.72;4949832;28;20086;-92
2023/04/10 08:03:07;;;;;;;9.23;6.35;;;;;;;16.02;41.87;94001.16;4950501;28;20042;-92
2023/04/10 08:05:33;;;;;;;9.40;5.47;;;;;;;16.06;41.98;94006.41;4999004;28;20035;-92
2023/04/10 08:07:59;;;;;;;10.98;4.65;;;;;;;15.98;41.64;94003.38;4981412;28;20042;-92
2023/04/10 08:10:38;;;;;;;13.00;8.55;;;;;;;16.08;41.98;94001.22;4983569;28;20039;-92
2023/04/10 08:13:04;;;;;;;8.50;5.38;;;;;;;16.07;41.65;94010.63;4969096;28;20078;-90
2023/04/10 08:15:30;;;;;;;7.57;4.93;;;;;;;16.05;41.76;94007.66;4965792;28;20542;-90
2023/04/10 08:17:55;;;;;;;7.97;5.53;;;;;;;16.05;41.99;94007.66;4980735;28;20047;-91
2023/04/10 08:20:22;;;;;;;8.45;5.80;;;;;;;16.08;42.07;94006.69;4960303;28;20042;-91
2023/04/10 08:22:47;;;;;;;7.45;5.40;;;;;;;16.10;41.76;94009.69;5005649;23;20116;-90
2023/04/10 08:25:13;;;;;;;7.97;6.03;;;;;;;16.07;41.61;94002.47;4999908;28;20038;-92
2023/04/10 08:27:38;;;;;;;9.70;5.68;;;;;;;16.08;41.80;94006.69;4965238;28;20046;-91
2023/04/10 08:30:05;;;;;;;8.48;5.68;;;;;;;16.07;42.05;94007.91;4986013;28;20034;-91
2023/04/10 08:32:35;;;;;;;9.25;5.95;;;;;;;16.09;41.99;94008.19;4986826;28;20041;-90
2023/04/10 08:35:00;;;;;;;9.73;5.45;;;;;;;16.03;42.01;94005.41;4975078;28;20042;-91
2023/04/10 08:37:26;;;;;;;9.00;6.35;;;;;;;16.05;42.01;94008.41;4991475;23;20043;-91
2023/04/10 08:39:53;;;;;;;8.30;5.85;;;;;;;16.01;42.04;94010.59;4960790;23;20038;-91
2023/04/10 08:42:19;;;;;;;10.90;7.18;;;;;;;16.06;42.24;94009.91;4985596;28;20045;-91
2023/04/10 08:44:45;;;;;;;13.20;8.85;;;;;;;16.07;42.27;94014.13;5010785;22;20035;-91
2023/04/10 08:47:13;;;;;;;16.13;8.95;;;;;;;16.03;42.16;94002.66;4980975;28;20066;-90
2023/04/10 08:49:56;;;;;;;15.45;9.57;;;;;;;16.02;42.49;94011.34;4994665;23;20046;-91
2023/04/10 08:52:25;;;;;;;15.63;9.93;;;;;;;16.05;42.07;94013.09;4976617;23;20050;-91
2023/04/10 08:54:53;;;;;;;14.80;9.70;;;;;;;16.05;42.36;94013.09;5004539;28;20093;-90
2023/04/10 08:57:19;;;;;;;16.88;10.52;;;;;;;16.05;42.65;94013.09;4990628;23;20051;-91
2023/04/10 08:59:46;;;;;;;13.15;9.07;;;;;;;16.07;42.65;94016.09;4991940;28;20413;-92
2023/04/10 09:02:12;;;;;;;17.50;10.05;;;;;;;16.00;42.63;94006.38;4989101;28;20097;-91
2023/04/10 09:07:03;;;;;;;15.20;9.75;;;;;;;16.07;42.32;93999.72;5005480;22;20098;-93
2023/04/10 09:09:31;;;;;;;16.40;9.80;;;;;;;16.02;41.63;94003.19;4981645;28;20046;-92
2023/04/10 09:12:02;;;;;;;10.95;7.63;;;;;;;16.02;41.36;94003.91;4966744;28;20046;-93
2023/04/10 09:14:30;;;;;;;11.43;8.35;;;;;;;16.01;41.37;94001.69;4977570;28;20034;-91
2023/04/10 09:17:15;;;;;;;10.00;7.68;;;;;;;15.91;41.25;94003.03;4984443;28;20084;-92
2023/04/10 09:19:41;;;;;;;13.93;9.90;;;;;;;15.91;41.79;94009.25;5016588;28;20065;-91
2023/04/10 09:22:06;;;;;;;15.00;9.18;;;;;;;15.94;41.63;94007.53;4960791;28;20121;-92
2023/04/10 09:24:37;;;;;;;17.90;10.68;;;;;;;15.91;42.15;94003.78;4979459;28;20042;-94
2023/04/10 09:27:02;;;;;;;24.33;12.73;;;;;;;15.94;42.13;94005.56;4959266;28;20102;-94
2023/04/10 09:29:41;;;;;;;26.63;11.95;;;;;;;15.95;42.08;94000.88;4961920;28;20350;-92
2023/04/10 09:32:07;;;;;;;20.08;11.48;;;;;;;15.95;42.21;93996.16;5000401;28;20046;-91
2023/04/10 09:34:33;;;;;;;19.50;9.50;;;;;;;15.94;41.99;94002.09;4969846;23;20031;-91
2023/04/10 09:37:00;;;;;;;20.30;10.80;;;;;;;16.01;42.35;93998.94;4967901;28;20085;-91
2023/04/10 09:39:33;;;;;;;20.35;10.13;;;;;;;15.97;41.78;93996.44;4935399;28;20015;-92
2023/04/10 09:41:58;;;;;;;13.30;8.10;;;;;;;16.00;42.01;93992.00;4941208;28;20073;-91
2023/04/10 09:44:42;;;;;;;15.23;9.07;;;;;;;15.96;42.14;93992.19;4956166;28;20035;-92
2023/04/10 09:47:18;;;;;;;15.25;9.52;;;;;;;15.95;42.33;93974.34;4973470;28;20051;-91
2023/04/10 09:50:03;;;;;;;16.33;8.95;;;;;;;15.98;41.85;93978.84;4969761;28;20039;-91
2023/04/10 09:52:33;;;;;;;18.40;8.77;;;;;;;16.00;42.24;93970.19;4992293;28;20038;-92
2023/04/10 09:55:04;;;;;;;16.52;7.45;;;;;;;15.95;41.63;93974.34;4994662;22;20074;-93
2023/04/10 09:57:30;;;;;;;14.70;8.57;;;;;;;16.02;42.10;93973.19;4968265;28;20046;-93
2023/04/10 09:59:57;;;;;;;15.88;8.38;;;;;;;16.01;42.21;93969.69;4979833;23;20102;-93
2023/04/10 10:02:27;;;;;;;14.02;8.20;;;;;;;16.01;42.24;93958.78;4972707;28;20166;-93
2023/04/10 10:04:53;;;;;;;14.15;8.45;;;;;;;16.02;41.94;93965.00;4987584;28;20050;-94
2023/04/10 10:07:26;;;;;;;12.82;8.18;;;;;;;16.00;41.94;93962.75;5005583;28;20034;-92
2023/04/10 10:09:51;;;;;;;12.05;8.00;;;;;;;16.01;42.28;93958.78;5005206;28;20030;-91
2023/04/10 10:12:34;;;;;;;12.73;7.43;;;;;;;15.98;42.08;93959.00;4988892;28;20069;-92
2023/04/10 10:15:11;;;;;;;11.82;8.63;;;;;;;16.00;42.20;93967.44;4991558;28;20038;-94
2023/04/10 10:17:46;;;;;;;11.85;7.70;;;;;;;15.99;42.03;93957.78;4975834;28;20037;-92
2023/04/10 10:20:12;;;;;;;11.10;7.22;;;;;;;16.03;41.95;93952.84;4985125;28;20043;-91
2023/04/10 10:22:37;;;;;;;12.55;7.45;;;;;;;16.01;41.86;93947.13;4988289;28;20027;-92
2023/04/10 10:25:04;;;;;;;11.55;7.93;;;;;;;16.02;41.93;93938.44;4987723;28;20434;-92
2023/04/10 10:27:35;;;;;;;13.32;7.78;;;;;;;16.00;42.22;93949.13;5006327;28;20042;-92
2023/04/10 10:30:01;;;;;;;11.73;7.50;;;;;;;16.03;42.12;93941.94;4976817;28;20030;-91
2023/04/10 10:32:26;;;;;;;12.32;8.30;;;;;;;16.01;41.93;93941.69;4974588;28;20493;-91
2023/04/10 10:34:58;;;;;;;8.70;6.93;;;;;;;16.05;41.59;93944.91;4971460;28;20035;-93
2023/04/10 10:37:23;;;;;;;9.65;6.50;;;;;;;15.95;41.69;93940.88;4979324;28;20038;-94
2023/04/10 10:39:56;;;;;;;17.35;10.45;;;;;;;16.05;41.86;93926.59;4992962;28;20092;-91
2023/04/10 10:42:32;;;;;;;19.50;11.48;;;;;;;16.01;42.09;93928.03;4973011;28;20038;-93
2023/04/10 10:45:01;;;;;;;18.75;10.68;;;;;;;16.00;41.90;93935.47;4975997;28;20110;-93
2023/04/10 10:47:28;;;;;;;18.98;12.10;;;;;;;16.00;42.11;93932.75;5024372;28;20045;-92
2023/04/10 10:50:03;;;;;;;17.98;12.38;;;;;;;16.02;42.15;93937.72;4999079;23;20051;-92
2023/04/10 10:52:56;;;;;;;18.98;13.20;;;;;;;15.99;42.16;93935.97;4986959;28;20154;-93
2023/04/10 10:55:21;;;;;;;18.58;12.27;;;;;;;16.02;41.97;93929.53;4969584;28;20113;-93
2023/04/10 10:57:54;;;;;;;12.80;9.30;;;;;;;16.02;41.77;93924.81;4994952;28;20557;-91
2023/04/10 11:00:21;;;;;;;15.80;8.60;;;;;;;16.01;41.34;93930.78;4983540;28;20031;-92
2023/04/10 11:03:13;;;;;;;20.40;11.02;;;;;;;16.07;41.91;93923.38;4994007;28;20043;-92
2023/04/10 11:06:05;;;;;;;16.25;10.18;;;;;;;16.09;42.10;93918.19;4946818;29;20044;-92
2023/04/10 11:08:52;;;;;;;20.77;12.18;;;;;;;16.09;42.02;93916.22;4949177;29;20051;-93
2023/04/10 11:11:24;;;;;;;20.25;12.50;;;;;;;16.13;41.87;93915.25;4924527;29;20134;-92
2023/04/10 11:13:55;;;;;;;20.05;12.73;;;;;;;16.12;41.83;93919.94;4951227;29;20035;-92
2023/04/10 11:19:07;;;;;;;17.48;11.43;;;;;;;16.18;41.78;93903.63;4994526;23;20045;-92
2023/04/10 11:21:34;;;;;;;19.10;11.98;;;;;;;16.19;41.84;93907.88;4959018;23;20055;-92
2023/04/10 11:24:04;;;;;;;16.93;11.07;;;;;;;16.18;41.95;93903.63;4996422;23;20038;-93
2023/04/10 11:26:32;;;;;;;24.52;12.63;;;;;;;16.17;41.64;93891.97;4983471;23;20057;-93
2023/04/10 11:28:58;;;;;;;20.25;11.63;;;;;;;16.18;41.47;93892.72;5018596;28;20022;-92
2023/04/10 11:31:24;;;;;;;17.80;11.32;;;;;;;16.15;41.33;93893.69;4988647;28;20038;-92
2023/04/10 11:34:00;;;;;;;12.32;9.02;;;;;;;16.06;41.45;93894.59;5001979;23;20038;-92
2023/04/10 11:36:26;;;;;;;20.90;12.63;;;;;;;16.14;41.61;93887.50;5006413;28;20133;-92
2023/04/10 11:39:07;;;;;;;18.98;11.85;;;;;;;16.07;41.51;93883.22;4975566;28;20030;-93
2023/04/10 11:41:35;;;;;;;20.58;12.93;;;;;;;16.08;42.01;93876.53;5027070;28;20085;-92
2023/04/10 11:44:03;;;;;;;22.65;12.13;;;;;;;16.18;41.54;93882.56;5027626;28;20046;-92